Time;durP1;ratioP1;P1;durP2;ratioP2;P2;SDS_P1;SDS_P2;PMS_P1;PMS_P2;Temp;Humidity;BMP_temperature;BMP_pressure;BME280_temperature;BME280_humidity;BME280_pressure;Samples;Min_cycle;Max_cycle;Signal;HPM_P1;HPM_P2
2023/05/21 00:01:07;;;;;;;7.22;3.58;;;13.40;81.00;;;;;;5052670;28;20025;-48
2023/05/21 00:03:34;;;;;;;6.97;4.00;;;13.40;81.10;;;;;;5051022;28;20032;-46
2023/05/21 00:06:02;;;;;;;8.35;3.63;;;13.40;81.00;;;;;;5051195;28;20028;-50
2023/05/21 00:08:29;;;;;;;10.90;3.38;;;13.30;81.00;;;;;;5049903;28;20033;-48
2023/05/21 00:10:57;;;;;;;6.38;3.33;;;13.30;80.80;;;;;;5046939;28;20025;-50
2023/05/21 00:13:25;;;;;;;9.50;3.75;;;13.20;80.70;;;;;;5053949;28;20021;-48
2023/05/21 00:15:51;;;;;;;8.32;4.20;;;13.20;81.10;;;;;;5049816;28;20075;-46
2023/05/21 00:18:18;;;;;;;10.77;4.20;;;13.20;81.10;;;;;;5051433;28;20174;-48
2023/05/21 00:20:47;;;;;;;6.22;3.08;;;13.10;81.30;;;;;;5034231;28;20037;-46
2023/05/21 00:23:17;;;;;;;7.40;2.90;;;13.10;81.30;;;;;;5051953;28;20033;-46
2023/05/21 00:25:45;;;;;;;7.63;3.60;;;13.10;81.30;;;;;;5048638;28;20065;-46
2023/05/21 00:28:12;;;;;;;7.93;3.38;;;13.10;81.60;;;;;;5051834;28;20029;-46
2023/05/21 00:30:39;;;;;;;5.65;3.45;;;13.10;81.30;;;;;;5047997;28;20435;-46
2023/05/21 00:33:06;;;;;;;6.32;3.03;;;13.10;81.70;;;;;;5048171;28;20028;-46
2023/05/21 00:35:33;;;;;;;8.80;3.70;;;13.10;81.30;;;;;;5041615;28;20061;-46
2023/05/21 00:38:06;;;;;;;6.85;3.70;;;13.00;81.20;;;;;;5048431;28;20056;-46
2023/05/21 00:40:35;;;;;;;8.48;4.20;;;13.00;81.40;;;;;;5047478;28;20039;-48
2023/05/21 00:43:01;;;;;;;9.82;3.60;;;13.00;81.20;;;;;;5052883;28;20039;-49
2023/05/21 00:45:28;;;;;;;9.07;3.33;;;12.90;81.30;;;;;;5042585;28;20108;-48
2023/05/21 00:47:55;;;;;;;9.68;3.90;;;12.90;81.30;;;;;;5052044;28;20854;-47
2023/05/21 00:50:24;;;;;;;6.70;3.15;;;12.90;81.60;;;;;;5052031;28;20057;-46
2023/05/21 00:52:53;;;;;;;7.13;3.50;;;12.90;81.60;;;;;;5031190;28;20370;-45
2023/05/21 00:55:20;;;;;;;8.18;3.50;;;12.90;81.70;;;;;;5028012;28;20426;-46
2023/05/21 00:57:49;;;;;;;6.97;3.05;;;12.90;81.20;;;;;;5034344;28;20037;-48
2023/05/21 01:00:16;;;;;;;6.63;3.40;;;12.90;81.20;;;;;;5051300;28;20065;-49
2023/05/21 01:02:44;;;;;;;6.38;3.42;;;12.90;81.20;;;;;;5044201;28;20103;-49
2023/05/21 01:05:10;;;;;;;7.50;3.65;;;12.90;81.50;;;;;;5034217;28;20109;-46
2023/05/21 01:07:40;;;;;;;11.10;4.13;;;12.90;81.40;;;;;;5050210;28;20029;-47
2023/05/21 01:10:08;;;;;;;6.72;2.70;;;12.90;81.50;;;;;;5029617;28;20336;-51
2023/05/21 01:12:38;;;;;;;9.02;3.45;;;12.90;81.50;;;;;;5034972;28;20406;-49
2023/05/21 01:15:08;;;;;;;8.73;3.30;;;12.90;80.90;;;;;;5034068;28;20033;-45
2023/05/21 01:17:37;;;;;;;8.32;2.95;;;12.90;80.90;;;;;;5051638;28;20033;-48
2023/05/21 01:20:11;;;;;;;7.88;3.00;;;12.80;81.00;;;;;;5045494;28;20041;-46
2023/05/21 01:22:52;;;;;;;8.52;3.53;;;12.80;81.30;;;;;;5044654;28;20072;-46
2023/05/21 01:25:23;;;;;;;8.05;3.03;;;12.80;81.40;;;;;;5046598;28;20043;-50
2023/05/21 01:27:51;;;;;;;8.63;3.50;;;12.80;81.60;;;;;;5044570;28;20033;-46
2023/05/21 01:30:19;;;;;;;8.35;4.05;;;12.80;81.20;;;;;;5051018;28;20083;-52
2023/05/21 01:33:03;;;;;;;5.40;3.08;;;12.70;81.10;;;;;;5052088;28;20099;-45
2023/05/21 01:35:54;;;;;;;6.47;3.20;;;12.70;81.20;;;;;;5044707;28;20084;-49
2023/05/21 01:39:03;;;;;;;4.97;3.05;;;12.70;81.40;;;;;;5036781;28;20045;-48
2023/05/21 01:41:38;;;;;;;8.05;3.08;;;12.70;81.30;;;;;;5044873;28;20024;-51
2023/05/21 01:44:06;;;;;;;7.65;3.00;;;12.70;81.60;;;;;;5056631;28;20158;-46
2023/05/21 01:46:35;;;;;;;8.77;4.03;;;12.60;81.80;;;;;;5036609;28;20037;-48
2023/05/21 01:49:03;;;;;;;8.40;3.43;;;12.60;82.10;;;;;;5039035;28;20362;-47
2023/05/21 01:51:33;;;;;;;6.65;3.42;;;12.60;82.10;;;;;;5025889;28;20286;-48
2023/05/21 01:54:02;;;;;;;;;;;12.60;82.10;;;;;;5045750;28;20029;-46
2023/05/21 01:56:32;;;;;;;8.32;3.22;;;12.60;82.30;;;;;;5045966;28;19959;-48
2023/05/21 01:58:59;;;;;;;;;;;12.60;82.20;;;;;;5055179;28;20021;-47
2023/05/21 02:01:29;;;;;;;7.35;3.38;;;12.50;82.30;;;;;;5055482;28;19936;-47
2023/05/21 02:03:56;;;;;;;6.13;3.15;;;12.60;82.50;;;;;;5053010;28;20037;-46
2023/05/21 02:06:23;;;;;;;6.13;3.30;;;12.50;82.50;;;;;;5055013;28;20400;-48
2023/05/21 02:08:50;;;;;;;8.32;3.75;;;12.50;82.10;;;;;;5055722;28;20356;-47
2023/05/21 02:11:17;;;;;;;7.35;3.30;;;12.50;82.10;;;;;;5038805;28;20363;-49
2023/05/21 02:13:44;;;;;;;6.28;3.67;;;12.50;82.00;;;;;;5054633;28;20477;-49
2023/05/21 02:16:13;;;;;;;7.85;3.38;;;12.50;82.10;;;;;;5050144;28;20056;-48
2023/05/21 02:18:41;;;;;;;6.88;3.30;;;12.40;81.60;;;;;;5041508;28;20426;-50
2023/05/21 02:21:11;;;;;;;8.45;4.07;;;12.40;81.90;;;;;;5035568;28;20049;-48
2023/05/21 02:23:40;;;;;;;6.00;3.53;;;12.40;82.10;;;;;;5053759;28;20040;-49
2023/05/21 02:26:07;;;;;;;11.23;3.92;;;12.40;82.10;;;;;;5038260;28;20350;-46
2023/05/21 02:28:35;;;;;;;7.97;3.20;;;12.40;82.10;;;;;;5054838;28;20059;-45
2023/05/21 02:31:01;;;;;;;6.43;3.17;;;12.40;81.70;;;;;;5054353;28;20024;-47
2023/05/21 02:33:28;;;;;;;5.30;3.58;;;12.40;81.80;;;;;;5037327;28;20433;-49
2023/05/21 02:35:55;;;;;;;8.88;3.42;;;12.40;82.10;;;;;;5030557;28;20045;-48
2023/05/21 02:38:22;;;;;;;8.27;4.00;;;12.30;82.20;;;;;;5050165;28;20352;-47
2023/05/21 02:40:50;;;;;;;10.57;3.72;;;12.30;82.20;;;;;;5036709;28;20086;-46
2023/05/21 02:43:16;;;;;;;9.88;3.47;;;12.30;82.10;;;;;;5047804;28;20029;-45
2023/05/21 02:45:44;;;;;;;7.75;3.53;;;12.20;81.90;;;;;;5041105;28;20029;-45
2023/05/21 02:48:12;;;;;;;9.30;3.45;;;12.30;82.10;;;;;;5053487;28;20032;-46
2023/05/21 02:50:39;;;;;;;6.50;2.88;;;12.30;82.20;;;;;;5055423;28;20342;-45
2023/05/21 02:53:05;;;;;;;8.75;4.47;;;12.30;82.10;;;;;;5051171;28;20049;-45
2023/05/21 02:55:32;;;;;;;7.60;3.22;;;12.30;82.30;;;;;;5055783;28;20079;-45
2023/05/21 02:57:58;;;;;;;6.65;3.10;;;12.20;82.40;;;;;;5054377;28;20036;-46
2023/05/21 03:00:26;;;;;;;8.38;3.03;;;12.20;82.50;;;;;;5054572;28;20090;-45
2023/05/21 03:02:52;;;;;;;12.73;4.10;;;12.20;82.50;;;;;;5054023;28;20470;-45
2023/05/21 03:05:19;;;;;;;7.20;2.97;;;12.20;82.50;;;;;;5054423;28;20107;-46
2023/05/21 03:07:48;;;;;;;6.80;3.30;;;12.20;82.80;;;;;;5050944;28;20043;-45
2023/05/21 03:10:15;;;;;;;9.75;3.45;;;12.20;82.50;;;;;;5035019;28;20034;-46
2023/05/21 03:12:41;;;;;;;6.68;3.10;;;12.20;82.40;;;;;;5040700;28;20025;-45
2023/05/21 03:15:09;;;;;;;8.05;3.35;;;12.20;82.20;;;;;;5054248;28;20033;-46
2023/05/21 03:17:36;;;;;;;6.32;3.35;;;12.20;82.00;;;;;;5049630;28;20053;-45
2023/05/21 03:20:07;;;;;;;11.18;3.42;;;12.20;82.00;;;;;;5034793;28;20112;-45
2023/05/21 03:22:36;;;;;;;6.03;3.03;;;12.20;81.80;;;;;;5038876;28;20049;-46
2023/05/21 03:25:03;;;;;;;7.20;3.03;;;12.20;81.70;;;;;;5053490;28;20530;-46
2023/05/21 03:27:33;;;;;;;6.85;3.78;;;12.20;81.70;;;;;;5041573;28;20158;-45
2023/05/21 03:29:59;;;;;;;9.07;3.88;;;12.20;81.60;;;;;;5053097;28;20431;-46
2023/05/21 03:32:26;;;;;;;10.32;3.50;;;12.20;81.50;;;;;;5036243;28;20059;-46
2023/05/21 03:34:53;;;;;;;6.95;3.70;;;12.20;81.60;;;;;;5036196;28;20111;-49
2023/05/21 03:37:22;;;;;;;5.85;3.03;;;12.10;81.60;;;;;;5049738;28;20040;-46
2023/05/21 03:39:49;;;;;;;12.07;3.73;;;12.20;81.80;;;;;;5035825;28;20045;-46
2023/05/21 03:42:18;;;;;;;9.93;3.53;;;12.10;81.70;;;;;;5016765;28;20363;-48
2023/05/21 03:44:45;;;;;;;5.53;3.15;;;12.10;81.50;;;;;;5049199;28;20354;-45
2023/05/21 03:47:12;;;;;;;8.45;3.30;;;12.20;81.50;;;;;;5052858;28;20033;-45
2023/05/21 03:49:39;;;;;;;9.02;3.50;;;12.20;81.30;;;;;;5053276;28;20036;-45
2023/05/21 03:52:06;;;;;;;5.72;3.25;;;12.20;81.20;;;;;;5048768;28;21557;-48
2023/05/21 03:54:33;;;;;;;5.20;3.00;;;12.20;81.60;;;;;;5035306;28;20025;-46
2023/05/21 03:57:00;;;;;;;9.48;3.00;;;12.20;81.70;;;;;;5053993;28;20110;-46
2023/05/21 03:59:27;;;;;;;9.95;3.45;;;12.20;81.70;;;;;;5049622;28;20035;-45
2023/05/21 04:01:53;;;;;;;7.50;2.72;;;12.20;81.50;;;;;;5052309;28;20446;-50
2023/05/21 04:04:20;;;;;;;10.88;3.58;;;12.20;81.40;;;;;;5037471;28;20033;-45
2023/05/21 04:06:48;;;;;;;8.68;3.42;;;12.20;81.10;;;;;;5043168;28;20521;-48
2023/05/21 04:09:15;;;;;;;10.10;3.78;;;12.20;81.40;;;;;;5053154;28;20056;-46
2023/05/21 04:11:42;;;;;;;5.97;3.03;;;12.20;81.10;;;;;;5047810;28;20328;-45
2023/05/21 04:14:09;;;;;;;6.68;3.05;;;12.20;81.20;;;;;;5050379;28;20025;-45
2023/05/21 04:16:37;;;;;;;8.10;3.42;;;12.20;81.30;;;;;;5052246;28;20346;-46
2023/05/21 04:19:05;;;;;;;6.93;3.20;;;12.30;81.40;;;;;;5052484;28;20533;-46
2023/05/21 04:21:31;;;;;;;6.68;3.03;;;12.30;81.50;;;;;;5035834;28;20048;-46
2023/05/21 04:23:59;;;;;;;8.20;2.95;;;12.30;81.20;;;;;;5053623;28;20036;-45
2023/05/21 04:26:26;;;;;;;7.47;3.10;;;12.40;81.40;;;;;;5052172;28;20450;-45
2023/05/21 04:28:54;;;;;;;5.30;2.88;;;12.40;81.40;;;;;;5047700;28;20033;-47
2023/05/21 04:31:22;;;;;;;5.60;3.45;;;12.40;81.40;;;;;;5045126;28;20055;-46
2023/05/21 04:33:49;;;;;;;4.80;2.70;;;12.40;81.30;;;;;;5048779;28;20091;-46
2023/05/21 04:36:16;;;;;;;5.45;3.92;;;12.50;81.20;;;;;;5052311;28;20096;-46
2023/05/21 04:38:43;;;;;;;9.10;3.55;;;12.50;81.00;;;;;;5033953;28;20037;-50
2023/05/21 04:41:10;;;;;;;8.40;3.42;;;12.50;80.70;;;;;;5044756;28;20063;-46
2023/05/21 04:43:37;;;;;;;5.43;3.00;;;12.60;80.40;;;;;;5040250;28;20438;-47
2023/05/21 04:46:06;;;;;;;6.15;3.22;;;12.60;80.30;;;;;;5052344;28;20059;-46
2023/05/21 04:48:32;;;;;;;7.25;2.88;;;12.50;80.50;;;;;;5047328;28;20060;-46
2023/05/21 04:50:58;;;;;;;10.35;3.47;;;12.70;80.70;;;;;;5046516;28;20029;-46
2023/05/21 04:53:25;;;;;;;9.27;3.78;;;12.70;80.80;;;;;;5035145;28;20041;-48
2023/05/21 04:55:52;;;;;;;7.97;3.20;;;12.80;80.10;;;;;;5033157;28;20030;-46
2023/05/21 04:58:21;;;;;;;8.60;3.40;;;12.90;80.00;;;;;;5050928;28;20027;-46
2023/05/21 05:00:50;;;;;;;6.27;2.83;;;12.90;80.00;;;;;;5022582;28;20530;-45
2023/05/21 05:03:17;;;;;;;9.32;4.10;;;13.00;79.90;;;;;;5044773;28;20025;-46
2023/05/21 05:05:44;;;;;;;8.07;3.80;;;13.10;79.80;;;;;;5032114;28;20128;-47
2023/05/21 05:08:11;;;;;;;5.97;3.15;;;13.10;79.90;;;;;;5047290;28;20045;-45
2023/05/21 05:10:38;;;;;;;7.18;3.20;;;13.20;79.80;;;;;;5051911;28;20029;-47
2023/05/21 05:13:05;;;;;;;4.90;3.25;;;13.30;79.70;;;;;;5046497;28;20037;-49
2023/05/21 05:15:31;;;;;;;6.18;2.53;;;13.30;79.20;;;;;;5022181;28;20116;-49
2023/05/21 05:17:57;;;;;;;6.95;2.90;;;13.30;79.20;;;;;;5023695;28;20113;-48
2023/05/21 05:20:24;;;;;;;5.88;2.88;;;13.30;79.30;;;;;;5041749;28;20021;-46
2023/05/21 05:22:50;;;;;;;6.47;2.92;;;13.20;79.10;;;;;;5043239;28;20541;-46
2023/05/21 05:25:17;;;;;;;5.78;3.10;;;13.10;79.00;;;;;;5042427;28;20026;-46
2023/05/21 05:27:44;;;;;;;8.18;3.60;;;13.10;79.50;;;;;;5023530;28;20035;-46
2023/05/21 05:30:11;;;;;;;6.05;3.50;;;13.00;79.60;;;;;;5047961;28;20036;-47
2023/05/21 05:32:38;;;;;;;6.68;2.80;;;13.00;79.80;;;;;;5047432;28;20033;-45
2023/05/21 05:35:06;;;;;;;8.23;2.95;;;13.00;79.80;;;;;;5039840;28;20044;-48
2023/05/21 05:37:33;;;;;;;7.78;3.25;;;13.10;80.00;;;;;;5039484;28;20490;-46
2023/05/21 05:40:00;;;;;;;6.38;3.05;;;13.10;80.10;;;;;;5043874;28;20029;-46
2023/05/21 05:42:27;;;;;;;5.93;2.92;;;13.30;80.20;;;;;;5030638;28;20029;-46
2023/05/21 05:44:53;;;;;;;8.55;3.20;;;13.50;80.40;;;;;;5050768;28;20071;-46
2023/05/21 05:47:20;;;;;;;15.82;4.07;;;13.60;78.90;;;;;;5050415;28;20089;-47
2023/05/21 05:49:50;;;;;;;9.02;3.40;;;13.80;78.40;;;;;;5051044;28;20056;-48
2023/05/21 05:52:16;;;;;;;;;;;13.90;78.10;;;;;;5047722;28;20028;-48
2023/05/21 05:54:43;;;;;;;9.30;3.67;;;14.00;78.40;;;;;;5047669;28;20332;-48
2023/05/21 05:57:10;;;;;;;7.82;3.20;;;14.10;77.60;;;;;;5042544;28;20442;-46
2023/05/21 05:59:36;;;;;;;8.25;3.35;;;14.10;77.80;;;;;;5030012;28;20037;-48
2023/05/21 06:02:04;;;;;;;8.55;3.63;;;14.10;78.70;;;;;;5043005;28;20552;-49
2023/05/21 06:04:31;;;;;;;7.30;3.50;;;14.20;78.00;;;;;;5047356;28;20170;-47
2023/05/21 06:06:58;;;;;;;9.85;3.53;;;14.20;78.10;;;;;;5032157;28;20029;-48
2023/05/21 06:09:25;;;;;;;7.18;3.45;;;14.20;78.30;;;;;;5046425;28;21006;-48
2023/05/21 06:11:52;;;;;;;8.02;3.75;;;14.30;77.70;;;;;;5048718;28;20035;-46
2023/05/21 06:14:18;;;;;;;6.50;3.17;;;14.30;77.70;;;;;;5045729;28;20025;-46
2023/05/21 06:16:45;;;;;;;7.40;3.25;;;14.20;77.60;;;;;;5051010;28;20033;-47
2023/05/21 06:19:12;;;;;;;12.52;4.03;;;14.20;77.80;;;;;;5028466;28;20028;-46
2023/05/21 06:21:39;;;;;;;8.07;3.40;;;14.30;78.20;;;;;;5055089;28;20059;-46
2023/05/21 06:24:06;;;;;;;7.60;3.83;;;14.10;78.10;;;;;;5035687;28;20033;-48
2023/05/21 06:26:33;;;;;;;6.50;2.90;;;14.20;78.20;;;;;;5054228;28;20024;-48
2023/05/21 06:28:59;;;;;;;6.57;4.13;;;14.10;78.70;;;;;;5034643;28;20041;-47
2023/05/21 06:31:26;;;;;;;6.38;3.55;;;14.20;78.80;;;;;;5048782;28;20025;-47
2023/05/21 06:33:53;;;;;;;6.13;3.60;;;14.20;78.90;;;;;;5052089;28;20033;-48
2023/05/21 06:36:20;;;;;;;7.32;3.88;;;14.20;78.60;;;;;;5032905;28;20635;-46
2023/05/21 06:38:47;;;;;;;6.72;3.63;;;14.10;78.80;;;;;;5053675;28;20050;-48
2023/05/21 06:41:13;;;;;;;7.97;3.95;;;14.00;78.30;;;;;;5050656;28;20032;-47
2023/05/21 06:43:40;;;;;;;5.80;3.13;;;14.10;79.20;;;;;;5052146;28;20035;-46
2023/05/21 06:46:07;;;;;;;6.13;3.33;;;14.20;79.50;;;;;;5049146;28;20036;-48
2023/05/21 06:48:34;;;;;;;8.05;4.95;;;14.20;79.20;;;;;;5033239;28;20029;-46
2023/05/21 06:51:01;;;;;;;7.45;3.70;;;14.10;78.80;;;;;;5025234;28;20036;-46
2023/05/21 06:53:28;;;;;;;9.38;4.28;;;14.20;79.50;;;;;;5042191;28;20040;-46
2023/05/21 06:55:55;;;;;;;9.45;5.00;;;14.20;79.00;;;;;;5029371;28;20056;-47
2023/05/21 06:58:22;;;;;;;12.02;5.53;;;14.20;79.70;;;;;;5048291;28;20060;-45
2023/05/21 07:00:49;;;;;;;8.80;4.60;;;14.20;79.00;;;;;;5043314;28;20561;-45
2023/05/21 07:03:19;;;;;;;7.60;4.03;;;14.20;79.20;;;;;;5045442;28;20059;-47
2023/05/21 07:05:49;;;;;;;8.05;3.88;;;14.20;79.90;;;;;;5044654;28;20440;-46
2023/05/21 07:08:18;;;;;;;6.55;3.58;;;14.30;79.70;;;;;;5041216;28;20067;-46
2023/05/21 07:10:45;;;;;;;8.10;3.42;;;14.40;79.40;;;;;;5035785;28;20116;-46
2023/05/21 07:13:12;;;;;;;8.60;3.80;;;14.40;79.50;;;;;;5052641;28;20017;-46
2023/05/21 07:15:39;;;;;;;4.88;3.40;;;14.60;79.80;;;;;;5052881;28;20024;-46
2023/05/21 07:18:06;;;;;;;10.15;4.10;;;14.50;78.80;;;;;;5028740;28;20505;-46
2023/05/21 07:20:31;;;;;;;6.53;3.65;;;14.50;79.00;;;;;;5048535;28;20048;-48
2023/05/21 07:22:58;;;;;;;7.28;4.28;;;14.50;78.70;;;;;;5053476;28;20458;-46
2023/05/21 07:25:25;;;;;;;8.02;4.55;;;14.60;79.30;;;;;;5047629;28;20034;-48
2023/05/21 07:27:51;;;;;;;9.50;3.95;;;14.60;78.60;;;;;;5050026;28;20051;-46
2023/05/21 07:30:21;;;;;;;8.25;4.03;;;14.60;79.00;;;;;;5048248;28;20112;-46
2023/05/21 07:32:50;;;;;;;9.05;4.43;;;14.70;78.80;;;;;;5044160;28;20040;-46
2023/05/21 07:35:21;;;;;;;7.13;4.30;;;14.80;78.90;;;;;;5053768;28;20073;-47
2023/05/21 07:37:48;;;;;;;8.00;4.38;;;14.90;79.30;;;;;;5035437;28;20032;-46
2023/05/21 07:40:17;;;;;;;6.82;4.07;;;15.00;78.50;;;;;;5041682;28;20079;-49
2023/05/21 07:42:42;;;;;;;8.43;4.23;;;15.00;78.60;;;;;;5048152;28;20067;-46
2023/05/21 07:45:12;;;;;;;7.90;4.65;;;15.20;78.20;;;;;;5032321;28;20310;-47
2023/05/21 07:47:43;;;;;;;9.27;4.80;;;15.30;77.90;;;;;;5051941;28;20123;-46
2023/05/21 07:50:10;;;;;;;9.43;4.35;;;15.30;77.80;;;;;;5048405;28;20037;-46
2023/05/21 07:52:36;;;;;;;7.93;4.70;;;15.50;77.40;;;;;;5051923;28;20052;-46
2023/05/21 07:55:08;;;;;;;10.90;4.95;;;15.50;77.30;;;;;;5051671;28;20075;-47
2023/05/21 07:57:35;;;;;;;8.98;4.63;;;15.50;77.10;;;;;;5030525;28;20345;-46
2023/05/21 08:00:05;;;;;;;8.25;5.30;;;15.50;77.00;;;;;;5031815;28;20040;-47
2023/05/21 08:02:32;;;;;;;7.95;4.47;;;15.50;77.50;;;;;;5050532;28;20029;-46
2023/05/21 08:05:02;;;;;;;9.52;4.72;;;15.60;77.40;;;;;;5048108;28;20098;-47
2023/05/21 08:07:30;;;;;;;7.05;5.07;;;15.70;77.60;;;;;;5053340;28;20021;-46
2023/05/21 08:09:57;;;;;;;9.02;5.65;;;15.60;77.20;;;;;;5047818;28;20021;-47
2023/05/21 08:12:24;;;;;;;12.65;5.32;;;15.50;77.10;;;;;;5033098;28;20064;-46
2023/05/21 08:14:50;;;;;;;8.38;5.10;;;15.60;78.00;;;;;;5050260;28;20146;-49
2023/05/21 08:17:17;;;;;;;10.00;5.75;;;15.60;78.00;;;;;;5015100;28;20144;-48
2023/05/21 08:19:44;;;;;;;8.95;5.35;;;15.70;78.60;;;;;;5033459;28;20041;-46
2023/05/21 08:22:11;;;;;;;13.25;5.90;;;15.70;78.10;;;;;;5033126;28;20525;-46
2023/05/21 08:24:38;;;;;;;9.93;4.93;;;15.70;78.80;;;;;;5041483;28;20134;-49
2023/05/21 08:27:04;;;;;;;7.53;4.72;;;15.90;79.00;;;;;;5052240;28;20493;-47
2023/05/21 08:29:31;;;;;;;8.65;4.75;;;15.90;78.20;;;;;;5049310;28;20392;-46
2023/05/21 08:31:57;;;;;;;9.90;5.47;;;16.00;78.60;;;;;;5038468;28;20092;-46
2023/05/21 08:34:23;;;;;;;9.50;5.95;;;15.90;78.00;;;;;;5043224;28;20100;-47
2023/05/21 08:36:52;;;;;;;13.60;6.10;;;16.00;78.50;;;;;;5042365;28;20052;-52
2023/05/21 08:39:19;;;;;;;10.35;5.63;;;16.00;79.00;;;;;;5041755;28;20026;-48
2023/05/21 08:41:52;;;;;;;11.85;6.45;;;16.10;78.60;;;;;;5049756;28;20037;-47
2023/05/21 08:44:21;;;;;;;11.38;6.20;;;16.20;78.50;;;;;;5051168;28;20032;-47
2023/05/21 08:46:53;;;;;;;11.98;6.32;;;16.10;78.20;;;;;;5043668;28;20459;-47
2023/05/21 08:49:25;;;;;;;7.50;5.40;;;16.20;78.70;;;;;;5023023;28;20032;-49
2023/05/21 08:51:52;;;;;;;10.35;6.00;;;16.30;79.10;;;;;;5032212;28;20033;-50
2023/05/21 08:54:19;;;;;;;8.10;5.63;;;16.50;78.30;;;;;;5041551;28;20063;-48
2023/05/21 08:56:48;;;;;;;12.05;6.20;;;16.60;77.90;;;;;;5046528;28;20031;-47
2023/05/21 08:59:17;;;;;;;10.68;5.57;;;16.60;78.30;;;;;;5041948;28;20323;-46
2023/05/21 09:01:45;;;;;;;9.90;6.03;;;16.50;78.10;;;;;;5028656;28;20025;-49
2023/05/21 09:04:14;;;;;;;14.88;6.43;;;16.50;78.30;;;;;;5044287;28;20024;-46
2023/05/21 09:06:41;;;;;;;9.18;6.90;;;16.60;78.40;;;;;;5024708;28;20025;-48
2023/05/21 09:09:32;;;;;;;9.70;6.15;;;16.70;78.20;;;;;;5041105;28;20054;-48
2023/05/21 09:11:58;;;;;;;8.77;5.80;;;16.90;78.30;;;;;;5027883;28;20033;-46
2023/05/21 09:14:30;;;;;;;12.80;7.18;;;16.90;77.80;;;;;;5007938;28;20036;-48
2023/05/21 09:16:57;;;;;;;11.77;7.38;;;16.70;77.20;;;;;;5047549;28;20061;-49
2023/05/21 09:19:27;;;;;;;13.02;6.82;;;16.70;77.60;;;;;;5010056;28;20434;-49
2023/05/21 09:22:02;;;;;;;11.00;6.95;;;16.60;78.10;;;;;;5046686;28;20363;-47
2023/05/21 09:24:31;;;;;;;8.80;6.50;;;16.60;78.50;;;;;;5049987;28;20048;-47
2023/05/21 09:26:58;;;;;;;10.90;7.38;;;16.50;78.50;;;;;;5049851;28;20086;-46
2023/05/21 09:29:26;;;;;;;13.13;7.97;;;16.50;78.60;;;;;;5051128;28;20013;-48
2023/05/21 09:31:54;;;;;;;14.40;7.85;;;16.60;79.10;;;;;;5048832;28;20028;-46
2023/05/21 09:34:24;;;;;;;11.75;7.70;;;16.80;79.30;;;;;;5050053;28;20033;-48
2023/05/21 09:36:56;;;;;;;12.38;6.72;;;16.80;77.70;;;;;;5047658;28;20105;-47
2023/05/21 09:39:29;;;;;;;10.95;6.70;;;16.80;78.20;;;;;;5048163;28;20029;-51
2023/05/21 09:41:59;;;;;;;13.15;7.70;;;16.90;78.10;;;;;;5047978;28;20382;-47
2023/05/21 09:44:26;;;;;;;10.60;7.07;;;16.90;78.30;;;;;;5050673;28;20432;-52
2023/05/21 09:46:59;;;;;;;9.27;7.43;;;16.90;78.60;;;;;;5032804;28;20102;-47
2023/05/21 09:49:26;;;;;;;9.48;7.93;;;16.90;78.90;;;;;;5053544;28;20067;-47
2023/05/21 09:51:58;;;;;;;13.80;7.82;;;17.00;78.10;;;;;;5056008;28;20032;-46
2023/05/21 09:54:29;;;;;;;13.98;8.63;;;17.10;78.40;;;;;;5042991;28;20021;-46
2023/05/21 09:56:56;;;;;;;10.82;8.48;;;17.30;79.10;;;;;;5053525;28;20052;-47
2023/05/21 09:59:24;;;;;;;18.67;9.50;;;17.60;77.40;;;;;;5053762;28;20035;-47
2023/05/21 10:01:51;;;;;;;12.02;8.93;;;17.80;76.50;;;;;;5051313;28;20017;-50
2023/05/21 10:04:20;;;;;;;12.30;7.93;;;18.00;77.60;;;;;;5031729;28;20018;-46
2023/05/21 10:06:47;;;;;;;12.25;8.48;;;18.30;75.70;;;;;;5053356;28;20075;-46
2023/05/21 10:09:17;;;;;;;15.05;8.88;;;18.40;75.70;;;;;;5051773;28;20120;-47
2023/05/21 10:11:45;;;;;;;12.02;8.38;;;18.60;75.10;;;;;;5051597;28;20029;-49
2023/05/21 10:14:18;;;;;;;10.77;8.82;;;18.60;74.90;;;;;;5050805;28;20407;-47
2023/05/21 10:16:46;;;;;;;11.25;9.63;;;18.60;75.80;;;;;;5035769;28;20355;-47
2023/05/21 10:19:14;;;;;;;12.27;9.13;;;18.40;75.50;;;;;;5055129;28;20028;-48
2023/05/21 10:21:40;;;;;;;11.35;8.77;;;18.30;76.40;;;;;;5048511;28;20057;-47
2023/05/21 10:24:10;;;;;;;13.75;10.10;;;18.30;76.50;;;;;;5049666;28;20032;-50
2023/05/21 10:26:38;;;;;;;11.32;9.48;;;18.30;76.40;;;;;;5047867;28;20524;-49
2023/05/21 10:29:07;;;;;;;14.48;9.65;;;18.40;76.40;;;;;;5048595;28;20140;-47
2023/05/21 10:31:35;;;;;;;14.82;10.32;;;18.30;76.30;;;;;;5033777;28;20029;-46
2023/05/21 10:34:05;;;;;;;13.50;9.85;;;18.20;76.10;;;;;;5054513;28;20028;-46
2023/05/21 10:36:33;;;;;;;15.93;10.10;;;18.10;76.60;;;;;;5055159;28;20104;-50
2023/05/21 10:39:04;;;;;;;14.82;10.38;;;18.10;77.30;;;;;;5050955;28;20363;-47
2023/05/21 10:41:44;;;;;;;12.07;9.57;;;18.20;77.10;;;;;;5054547;28;20028;-49
2023/05/21 10:44:51;;;;;;;18.35;10.55;;;18.20;77.40;;;;;;5050223;28;20098;-49
2023/05/21 10:47:51;;;;;;;15.35;10.93;;;18.30;78.70;;;;;;5048397;28;20037;-49
2023/05/21 10:50:35;;;;;;;;;;;18.40;77.90;;;;;;5035678;28;20013;-47
2023/05/21 10:53:38;;;;;;;13.55;10.23;;;18.20;78.00;;;;;;5052099;28;19920;-47
2023/05/21 10:56:28;;;;;;;12.38;9.57;;;18.40;78.50;;;;;;5044747;28;20029;-47
2023/05/21 10:59:14;;;;;;;;;;;18.40;78.50;;;;;;5014142;28;20053;-47
2023/05/21 11:01:41;;;;;;;14.45;10.70;;;18.50;78.40;;;;;;5042848;28;20345;-47
2023/05/21 11:04:08;;;;;;;12.23;10.95;;;18.50;77.50;;;;;;5030639;28;20029;-50
2023/05/21 11:06:35;;;;;;;15.50;11.43;;;18.60;77.50;;;;;;5051521;28;20486;-47
2023/05/21 11:09:14;;;;;;;16.20;12.98;;;18.80;78.10;;;;;;5044222;28;20032;-51
2023/05/21 11:11:49;;;;;;;17.70;12.30;;;18.90;76.50;;;;;;5019665;28;20025;-47
2023/05/21 11:14:40;;;;;;;18.40;11.93;;;19.00;76.70;;;;;;5051971;28;20020;-48
2023/05/21 11:17:35;;;;;;;13.13;10.68;;;19.20;75.60;;;;;;5054070;28;20017;-49
2023/05/21 11:20:21;;;;;;;14.30;11.07;;;19.40;76.20;;;;;;5047308;28;20021;-46
2023/05/21 11:22:48;;;;;;;13.35;10.50;;;19.40;76.10;;;;;;5052001;28;20045;-47
2023/05/21 11:25:15;;;;;;;16.50;11.68;;;19.30;75.40;;;;;;5048655;28;20516;-47
2023/05/21 11:27:42;;;;;;;14.13;11.75;;;19.20;76.50;;;;;;5048881;28;20028;-49
2023/05/21 11:30:15;;;;;;;14.00;11.85;;;19.20;76.80;;;;;;5034561;28;20025;-48
2023/05/21 11:33:14;;;;;;;15.90;10.90;;;19.10;77.10;;;;;;5018447;28;20041;-47
2023/05/21 11:35:57;;;;;;;13.73;11.75;;;19.00;77.30;;;;;;5013760;28;20033;-46
2023/05/21 11:38:29;;;;;;;14.80;10.50;;;18.90;76.90;;;;;;5043619;28;20384;-51
2023/05/21 11:41:02;;;;;;;15.27;11.35;;;18.70;77.10;;;;;;5052902;28;20033;-47
2023/05/21 11:43:30;;;;;;;15.07;10.80;;;18.60;78.00;;;;;;5048105;28;20032;-51
2023/05/21 11:45:57;;;;;;;12.80;9.85;;;18.50;77.90;;;;;;5035073;28;20044;-46
2023/05/21 11:48:29;;;;;;;13.10;9.57;;;18.40;78.20;;;;;;5051410;28;20029;-49
2023/05/21 11:51:02;;;;;;;14.75;9.40;;;18.40;78.50;;;;;;5047903;28;20374;-46
2023/05/21 11:53:29;;;;;;;12.07;8.93;;;18.40;79.10;;;;;;5054168;28;20029;-47
2023/05/21 11:55:58;;;;;;;11.98;9.50;;;18.30;78.00;;;;;;5049879;28;20342;-48
2023/05/21 11:58:29;;;;;;;15.52;11.05;;;18.20;78.50;;;;;;5052220;28;20447;-50
2023/05/21 12:00:56;;;;;;;11.63;9.32;;;18.10;79.40;;;;;;5052256;28;20079;-47
2023/05/21 12:03:25;;;;;;;15.57;11.05;;;18.10;79.40;;;;;;5050664;28;20051;-51
2023/05/21 12:05:52;;;;;;;15.27;10.73;;;17.90;79.60;;;;;;5039082;28;20025;-49
2023/05/21 12:08:25;;;;;;;15.15;11.10;;;17.90;79.80;;;;;;5038368;28;20037;-47
2023/05/21 12:11:02;;;;;;;16.52;11.10;;;17.90;79.90;;;;;;5045674;28;20131;-47
2023/05/21 12:13:29;;;;;;;14.63;11.73;;;17.90;80.00;;;;;;5043259;28;20030;-49
2023/05/21 12:15:55;;;;;;;15.30;10.27;;;17.90;80.30;;;;;;5044207;28;20033;-51
2023/05/21 12:18:22;;;;;;;17.23;11.73;;;17.90;80.40;;;;;;5046386;28;20020;-47
2023/05/21 12:20:50;;;;;;;14.38;10.38;;;17.90;80.80;;;;;;5044098;28;20378;-49
2023/05/21 12:23:24;;;;;;;17.70;12.20;;;18.00;80.50;;;;;;5045864;28;20034;-48
2023/05/21 12:25:52;;;;;;;15.25;11.60;;;17.90;79.80;;;;;;5048007;28;20086;-47
2023/05/21 12:28:23;;;;;;;17.75;11.73;;;17.80;80.50;;;;;;5031350;28;20066;-48
2023/05/21 12:30:50;;;;;;;16.45;12.23;;;17.90;80.80;;;;;;5048862;28;20021;-47
2023/05/21 12:33:18;;;;;;;14.88;12.35;;;17.90;80.30;;;;;;5034166;28;20021;-47
2023/05/21 12:35:51;;;;;;;20.15;14.02;;;18.00;80.00;;;;;;5037877;28;20032;-47
2023/05/21 12:38:16;;;;;;;16.55;11.60;;;18.00;80.50;;;;;;5044324;28;20032;-48
2023/05/21 12:40:45;;;;;;;14.93;12.23;;;18.10;79.80;;;;;;5046333;28;20037;-47
2023/05/21 12:43:12;;;;;;;17.48;11.95;;;18.00;79.70;;;;;;5037834;28;20462;-47
2023/05/21 12:45:38;;;;;;;19.20;13.02;;;18.10;80.70;;;;;;5033054;28;20033;-49
2023/05/21 12:48:05;;;;;;;20.83;13.55;;;18.30;80.00;;;;;;5052009;28;20043;-48
2023/05/21 12:50:34;;;;;;;14.15;11.73;;;18.30;79.30;;;;;;5047349;28;20079;-47
2023/05/21 12:53:01;;;;;;;16.27;12.48;;;18.40;80.50;;;;;;5034971;28;20021;-49